^^
Station Historical Data
Daily Summary for March 3, 2017 Units:  English    Metric   Both
« Previous Day
Next Day »
Daily Weekly Monthly Yearly Custom
  High: Low: Average:
Temperature: 37.9 °F 23.5 °F 30 °F
Dew Point: 23.9 °F 7.8 °F 14.5 °F
Humidity: 79 % 34 % 53 %
Wind Speed: 18.2 mph 0.0 mph 7.1 mph
Wind Gust: 29.9 mph - -
Wind:- - WNW
Pressure: 30.51 in 30.16 in -
Precipitation: 0.00 in    
Historical Graphs
 
 
Tabular Data for March 3, 2017
Time Temperature Dew Point Pressure Wind Wind Speed Wind Gust Humidity Rainfall Rate (Hourly) solar Conditions
00:00 32.4 °F 17.2 °F 30.16 in Calm     53 % 0.00 in 0.0 W/m2 RA
00:05 32.1 °F 17.3 °F 30.16 in WNW 0.9 mph 2.3 mph 54 % 0.00 in 0.0 W/m2 RA
00:10 31.9 °F 17.1 °F 30.16 in West 1.7 mph 3.5 mph 54 % 0.00 in 0.0 W/m2 CLR
00:15 32.1 °F 16.9 °F 30.16 in WNW 7.0 mph 12.7 mph 53 % 0.00 in 0.0 W/m2 CLR
00:20 32.3 °F 16.6 °F 30.16 in WNW 9.3 mph 12.7 mph 52 % 0.00 in 0.0 W/m2 CLR
00:25 32.3 °F 16.2 °F 30.16 in WNW 8.1 mph 11.5 mph 51 % 0.00 in 0.0 W/m2 CLR
00:30 32.3 °F 16.2 °F 30.16 in WNW 5.1 mph 10.4 mph 51 % 0.00 in 0.0 W/m2 CLR
00:35 32.3 °F 16.2 °F 30.16 in WNW 6.3 mph 11.5 mph 51 % 0.00 in 0.0 W/m2 CLR
00:40 32.2 °F 16.1 °F 30.17 in West 5.8 mph 8.1 mph 51 % 0.00 in 0.0 W/m2 CLR
00:45 32.0 °F 16.3 °F 30.17 in WNW 3.0 mph 11.5 mph 52 % 0.00 in 0.0 W/m2 CLR
00:50 31.9 °F 15.8 °F 30.17 in West 10.2 mph 14.0 mph 51 % 0.00 in 0.0 W/m2 CLR
00:55 31.8 °F 14.8 °F 30.17 in NW 10.9 mph 18.4 mph 49 % 0.00 in 0.0 W/m2 CLR
01:00 31.8 °F 14.3 °F 30.17 in West 8.6 mph 13.0 mph 48 % 0.00 in 0.0 W/m2 CLR
01:05 31.7 °F 14.2 °F 30.18 in WNW 4.0 mph 9.2 mph 48 % 0.00 in 0.0 W/m2 CLR
01:10 31.5 °F 14.0 °F 30.17 in West 8.6 mph 12.7 mph 48 % 0.00 in 0.0 W/m2 CLR
01:15 31.4 °F 13.5 °F 30.17 in NW 7.7 mph 12.7 mph 47 % 0.00 in 0.0 W/m2 CLR
01:20 31.3 °F 12.9 °F 30.17 in WNW 5.9 mph 8.1 mph 46 % 0.00 in 0.0 W/m2 CLR
01:25 31.2 °F 12.8 °F 30.18 in West 9.6 mph 15.0 mph 46 % 0.00 in 0.0 W/m2 CLR
01:30 31.0 °F 12.6 °F 30.18 in West 9.5 mph 13.8 mph 46 % 0.00 in 0.0 W/m2 CLR
01:35 30.8 °F 12.4 °F 30.18 in WNW 11.1 mph 15.0 mph 46 % 0.00 in 0.0 W/m2 CLR
01:40 30.6 °F 12.2 °F 30.18 in West 9.3 mph 16.1 mph 46 % 0.00 in 0.0 W/m2 CLR
01:45 30.5 °F 12.2 °F 30.18 in West 10.9 mph 16.1 mph 46 % 0.00 in 0.0 W/m2 CLR
01:50 30.4 °F 12.1 °F 30.18 in West 7.7 mph 14.0 mph 46 % 0.00 in 0.0 W/m2 CLR
01:55 30.3 °F 12.0 °F 30.18 in WSW 6.8 mph 11.5 mph 46 % 0.00 in 0.0 W/m2 CLR
02:00 30.2 °F 12.4 °F 30.18 in WNW 6.1 mph 9.2 mph 47 % 0.00 in 0.0 W/m2 CLR
02:05 30.0 °F 12.2 °F 30.18 in NW 7.3 mph 10.4 mph 47 % 0.00 in 0.0 W/m2 CLR
02:10 30.0 °F 12.2 °F 30.18 in West 9.1 mph 13.8 mph 47 % 0.00 in 0.0 W/m2 CLR
02:15 29.9 °F 12.1 °F 30.18 in WNW 3.9 mph 8.1 mph 47 % 0.00 in 0.0 W/m2 CLR
02:20 29.7 °F 12.4 °F 30.18 in WNW 3.7 mph 3.7 mph 48 % 0.00 in 0.0 W/m2 CLR
02:25 29.6 °F 12.3 °F 30.18 in WNW 4.5 mph 8.1 mph 48 % 0.00 in 0.0 W/m2 CLR
02:30 29.6 °F 12.3 °F 30.19 in West 7.1 mph 11.5 mph 48 % 0.00 in 0.0 W/m2 CLR
02:35 29.5 °F 12.2 °F 30.18 in West 2.1 mph 5.8 mph 48 % 0.00 in 0.0 W/m2 CLR
02:40 29.4 °F 12.1 °F 30.18 in WNW 5.0 mph 10.4 mph 48 % 0.00 in 0.0 W/m2 CLR
02:45 29.3 °F 12.0 °F 30.18 in West 2.4 mph 9.2 mph 48 % 0.00 in 0.0 W/m2 CLR
02:50 29.3 °F 12.0 °F 30.18 in NW 3.4 mph 9.2 mph 48 % 0.00 in 0.0 W/m2 CLR
02:55 29.2 °F 11.9 °F 30.18 in West 6.5 mph 6.5 mph 48 % 0.00 in 0.0 W/m2 CLR
03:00 29.1 °F 12.3 °F 30.18 in West 3.8 mph 6.9 mph 49 % 0.00 in 0.0 W/m2 CLR
03:05 29.0 °F 12.2 °F 30.18 in WSW 2.6 mph 6.9 mph 49 % 0.00 in 0.0 W/m2 CLR
03:10 28.9 °F 12.1 °F 30.19 in West 1.7 mph 3.5 mph 49 % 0.00 in 0.0 W/m2 CLR
03:15 28.8 °F 12.5 °F 30.19 in West 1.1 mph 3.5 mph 50 % 0.00 in 0.0 W/m2 CLR
03:20 28.5 °F 12.6 °F 30.19 in Calm   1.2 mph 51 % 0.00 in 0.0 W/m2 CLR
03:25 28.3 °F 12.5 °F 30.19 in Calm     51 % 0.00 in 0.0 W/m2 CLR
03:30 28.1 °F 12.3 °F 30.19 in WSW 0.3 mph 4.0 mph 51 % 0.00 in 0.0 W/m2 CLR
03:35 28.0 °F 12.6 °F 30.20 in West 1.8 mph 5.8 mph 52 % 0.00 in 0.0 W/m2 CLR
03:40 27.9 °F 13.0 °F 30.20 in West 3.0 mph 7.0 mph 53 % 0.00 in 0.0 W/m2 CLR
03:46 28.1 °F 12.7 °F 30.20 in West 3.1 mph 6.9 mph 52 % 0.00 in 0.0 W/m2 CLR
03:51 28.1 °F 12.7 °F 30.20 in West 1.2 mph 3.5 mph 52 % 0.00 in 0.0 W/m2 CLR
03:56 28.0 °F 12.6 °F 30.20 in West 1.5 mph 3.5 mph 52 % 0.00 in 0.0 W/m2 CLR
04:01 27.9 °F 13.0 °F 30.20 in West 1.4 mph 3.5 mph 53 % 0.00 in 0.0 W/m2 CLR
04:06 27.9 °F 13.0 °F 30.20 in West 0.3 mph 2.3 mph 53 % 0.00 in 0.0 W/m2 CLR
04:11 27.7 °F 13.2 °F 30.20 in West 0.2 mph 1.2 mph 54 % 0.00 in 0.0 W/m2 CLR
04:16 27.4 °F 13.3 °F 30.20 in Calm     55 % 0.00 in 0.0 W/m2 CLR
04:21 27.4 °F 12.9 °F 30.20 in West 0.3 mph 2.3 mph 54 % 0.00 in 0.0 W/m2 CLR
04:26 27.3 °F 13.2 °F 30.21 in Calm     55 % 0.00 in 0.0 W/m2 CLR
04:31 27.2 °F 13.1 °F 30.21 in West 0.1 mph 1.2 mph 55 % 0.00 in 0.0 W/m2 CLR
04:36 27.2 °F 13.6 °F 30.22 in West 1.2 mph 2.3 mph 56 % 0.00 in 0.0 W/m2 CLR
04:41 27.3 °F 13.7 °F 30.22 in West 0.5 mph 2.3 mph 56 % 0.00 in 0.0 W/m2 CLR
04:46 27.1 °F 13.5 °F 30.22 in Calm     56 % 0.00 in 0.0 W/m2 CLR
04:51 26.9 °F 13.7 °F 30.22 in West 0.1 mph 1.2 mph 57 % 0.00 in 0.0 W/m2 CLR
04:56 26.8 °F 14.0 °F 30.23 in WSW 0.7 mph 3.5 mph 58 % 0.00 in 0.0 W/m2 CLR
05:01 27.1 °F 13.9 °F 30.23 in West 1.3 mph 3.5 mph 57 % 0.00 in 0.0 W/m2 CLR
05:06 27.3 °F 13.7 °F 30.23 in West 3.1 mph 9.2 mph 56 % 0.00 in 0.0 W/m2 CLR
05:11 27.3 °F 13.7 °F 30.23 in West 2.2 mph 4.0 mph 56 % 0.00 in 0.0 W/m2 CLR
05:16 27.2 °F 14.0 °F 30.23 in Calm   1.2 mph 57 % 0.00 in 0.0 W/m2 CLR
05:21 27.1 °F 13.9 °F 30.23 in West 3.2 mph 5.8 mph 57 % 0.00 in 0.0 W/m2 CLR
05:26 27.1 °F 13.9 °F 30.23 in West 2.4 mph 5.8 mph 57 % 0.00 in 0.0 W/m2 CLR
05:31 27.0 °F 13.8 °F 30.23 in WSW 2.7 mph 4.0 mph 57 % 0.00 in 0.0 W/m2 CLR
05:36 27.0 °F 13.8 °F 30.24 in West 1.1 mph 3.5 mph 57 % 0.00 in 0.0 W/m2 CLR
05:41 26.8 °F 13.6 °F 30.24 in West 2.2 mph 3.5 mph 57 % 0.00 in 0.0 W/m2 CLR
05:46 26.8 °F 13.6 °F 30.24 in West 1.4 mph 3.5 mph 57 % 0.00 in 0.0 W/m2 CLR
05:51 26.7 °F 13.9 °F 30.24 in West 0.3 mph 2.0 mph 58 % 0.00 in 0.0 W/m2 CLR
05:56 26.6 °F 13.8 °F 30.24 in Calm     58 % 0.00 in 0.0 W/m2 CLR
06:01 26.5 °F 13.7 °F 30.24 in West 0.3 mph 1.2 mph 58 % 0.00 in 0.0 W/m2 CLR
06:06 26.4 °F 14.0 °F 30.24 in West 1.0 mph 2.3 mph 59 % 0.00 in 0.0 W/m2 CLR
06:11 26.3 °F 13.9 °F 30.24 in West 1.4 mph 3.5 mph 59 % 0.00 in 0.0 W/m2 CLR
06:16 26.3 °F 13.9 °F 30.24 in West 1.0 mph 3.5 mph 59 % 0.00 in 0.0 W/m2 CLR
06:21 26.2 °F 13.8 °F 30.24 in West 0.9 mph 5.8 mph 59 % 0.00 in 0.0 W/m2 CLR
06:26 26.1 °F 14.1 °F 30.24 in West 2.3 mph 5.8 mph 60 % 0.00 in 0.0 W/m2 CLR
06:31 26.1 °F 14.1 °F 30.24 in West 1.7 mph 3.5 mph 60 % 0.00 in 0.0 W/m2 CLR
06:36 26.1 °F 14.1 °F 30.25 in WNW 1.7 mph 3.5 mph 60 % 0.00 in 5.0 W/m2 CLR
06:41 26.2 °F 14.2 °F 30.25 in WNW 0.1 mph 3.5 mph 60 % 0.00 in 7.0 W/m2 CLR
06:42 26.2 °F 14.2 °F 30.25 in WNW 0.1 mph 2.3 mph 60 % 0.00 in 9.0 W/m2 CLR
06:47 26.1 °F 14.1 °F 30.25 in WNW 0.3 mph 1.2 mph 60 % 0.00 in 11.0 W/m2 CLR
06:52 26.1 °F 14.1 °F 30.25 in WNW 0.8 mph 3.5 mph 60 % 0.00 in 12.0 W/m2 CLR
06:57 26.2 °F 14.2 °F 30.25 in West 1.6 mph 3.5 mph 60 % 0.00 in 16.0 W/m2 CLR
07:02 26.3 °F 14.3 °F 30.26 in West 1.7 mph 3.5 mph 60 % 0.00 in 18.0 W/m2 CLR
07:07 26.4 °F 14.4 °F 30.26 in West 1.1 mph 3.5 mph 60 % 0.00 in 21.0 W/m2 CLR
07:12 26.5 °F 14.5 °F 30.26 in WSW 2.6 mph 4.0 mph 60 % 0.00 in 26.0 W/m2 CLR
07:17 26.7 °F 14.7 °F 30.26 in West 4.0 mph 5.8 mph 60 % 0.00 in 26.0 W/m2 BKN
07:22 26.8 °F 15.1 °F 30.27 in West 1.4 mph 3.5 mph 61 % 0.00 in 40.0 W/m2 FEW
07:27 27.0 °F 14.9 °F 30.27 in West 1.8 mph 5.8 mph 60 % 0.00 in 46.0 W/m2 SCT
07:32 27.3 °F 15.2 °F 30.27 in West 1.2 mph 3.5 mph 60 % 0.00 in 44.0 W/m2 BKN
07:37 27.7 °F 15.6 °F 30.27 in WNW 1.6 mph 3.5 mph 60 % 0.00 in 72.0 W/m2 FEW
07:42 27.9 °F 15.4 °F 30.27 in West 4.6 mph 7.0 mph 59 % 0.00 in 153.0 W/m2 CLR
07:47 28.2 °F 15.7 °F 30.27 in NW 4.9 mph 8.1 mph 59 % 0.00 in 160.0 W/m2 CLR
07:52 28.4 °F 15.9 °F 30.28 in WSW 6.0 mph 8.1 mph 59 % 0.00 in 102.0 W/m2 FEW
07:57 28.5 °F 15.6 °F 30.28 in WNW 4.1 mph 6.9 mph 58 % 0.00 in 83.0 W/m2 CLR
08:02 28.5 °F 15.6 °F 30.28 in WNW 5.1 mph 9.2 mph 58 % 0.00 in 65.0 W/m2 BKN
08:07 28.3 °F 15.4 °F 30.28 in West 7.2 mph 10.4 mph 58 % 0.00 in 128.0 W/m2 FEW
08:12 28.4 °F 15.1 °F 30.28 in WNW 6.8 mph 11.5 mph 57 % 0.00 in 95.0 W/m2 BKN
08:17 28.5 °F 15.2 °F 30.28 in WNW 6.1 mph 11.5 mph 57 % 0.00 in 211.0 W/m2 CLR
08:22 29.2 °F 15.4 °F 30.28 in West 3.6 mph 6.0 mph 56 % 0.00 in 236.0 W/m2 CLR
08:27 29.0 °F 14.8 °F 30.28 in NW 8.1 mph 16.1 mph 55 % 0.00 in 339.0 W/m2 CLR
08:37 29.8 °F 15.6 °F 30.28 in NW 8.0 mph 11.5 mph 55 % 0.00 in 401.0 W/m2 CLR
08:42 30.2 °F 15.1 °F 30.28 in WNW 7.1 mph 13.8 mph 53 % 0.00 in 302.0 W/m2 CLR
08:47 30.5 °F 14.9 °F 30.28 in West 8.2 mph 13.0 mph 52 % 0.00 in 422.0 W/m2 CLR
08:52 30.4 °F 14.0 °F 30.28 in NNW 9.6 mph 15.0 mph 50 % 0.00 in 445.0 W/m2 CLR
08:57 30.6 °F 14.6 °F 30.28 in NW 4.7 mph 11.5 mph 51 % 0.00 in 450.0 W/m2 CLR
09:02 31.2 °F 14.7 °F 30.28 in NW 8.4 mph 12.7 mph 50 % 0.00 in 399.0 W/m2 CLR
09:07 31.2 °F 14.2 °F 30.28 in West 7.2 mph 9.2 mph 49 % 0.00 in 123.0 W/m2 CLR
09:12 30.5 °F 13.1 °F 30.28 in West 8.3 mph 12.7 mph 48 % 0.00 in 151.0 W/m2 BKN
09:17 30.4 °F 12.5 °F 30.28 in NNW 6.4 mph 10.4 mph 47 % 0.00 in 137.0 W/m2 BKN
09:22 30.3 °F 12.5 °F 30.28 in West 7.0 mph 11.5 mph 47 % 0.00 in 105.0 W/m2 OVC
09:27 30.0 °F 12.2 °F 30.28 in West 10.5 mph 18.4 mph 47 % 0.00 in 536.0 W/m2 FEW
09:32 30.7 °F 12.3 °F 30.28 in WNW 9.0 mph 12.7 mph 46 % 0.00 in 545.0 W/m2 CLR
09:37 31.3 °F 12.4 °F 30.28 in WNW 11.7 mph 17.3 mph 45 % 0.00 in 561.0 W/m2 CLR
09:42 32.0 °F 12.0 °F 30.28 in NW 4.9 mph 10.0 mph 43 % 0.00 in 570.0 W/m2 CLR
09:47 32.8 °F 12.7 °F 30.28 in WNW 10.1 mph 12.7 mph 43 % 0.00 in 584.0 W/m2 CLR
09:52 32.8 °F 12.2 °F 30.28 in WNW 12.0 mph 12.0 mph 42 % 0.00 in 617.0 W/m2 OVC
09:57 32.8 °F 12.2 °F 30.28 in WNW 9.7 mph 13.8 mph 42 % 0.00 in 599.0 W/m2 CLR
10:02 33.1 °F 11.9 °F 30.28 in NNW 8.9 mph 16.1 mph 41 % 0.00 in 617.0 W/m2 CLR
10:07 33.2 °F 12.0 °F 30.28 in NW 10.3 mph 15.0 mph 41 % 0.00 in 633.0 W/m2 CLR
10:12 33.7 °F 13.0 °F 30.28 in NNW 6.3 mph 11.5 mph 42 % 0.00 in 647.0 W/m2 CLR
10:17 33.8 °F 12.6 °F 30.28 in WNW 8.3 mph 12.7 mph 41 % 0.00 in 752.0 W/m2 CLR
10:27 32.6 °F 10.9 °F 30.29 in WNW 7.2 mph 15.0 mph 40 % 0.00 in 190.0 W/m2 BKN
10:32 33.0 °F 11.8 °F 30.28 in West 13.1 mph 15.0 mph 41 % 0.00 in 768.0 W/m2 CLR
10:37 33.3 °F 12.6 °F 30.29 in NW 5.9 mph 15.0 mph 42 % 0.00 in 751.0 W/m2 BKN
10:42 34.1 °F 12.8 °F 30.29 in West 7.0 mph 11.5 mph 41 % 0.00 in 742.0 W/m2 CLR
10:47 34.4 °F 12.5 °F 30.28 in WNW 8.2 mph 13.8 mph 40 % 0.00 in 670.0 W/m2 CLR
10:52 34.7 °F 12.8 °F 30.29 in West 4.8 mph 9.2 mph 40 % 0.00 in 251.0 W/m2 FEW
10:57 34.8 °F 13.5 °F 30.28 in WNW 5.5 mph 12.0 mph 41 % 0.00 in 816.0 W/m2 BKN
11:07 35.1 °F 11.4 °F 30.28 in NNW 10.0 mph 16.1 mph 37 % 0.00 in 204.0 W/m2 SCT
11:12 34.4 °F 10.8 °F 30.29 in WNW 11.3 mph 19.6 mph 37 % 0.00 in 165.0 W/m2 BKN
11:17 34.6 °F 11.6 °F 30.29 in WNW 10.7 mph 12.7 mph 38 % 0.00 in 617.0 W/m2 CLR
11:22 35.1 °F 12.0 °F 30.28 in WSW 9.4 mph 13.8 mph 38 % 0.00 in 798.0 W/m2 CLR
11:27 35.4 °F 11.7 °F 30.28 in NW 8.8 mph 12.7 mph 37 % 0.00 in 856.0 W/m2 CLR
11:32 36.2 °F 11.8 °F 30.28 in WNW 9.4 mph 16.1 mph 36 % 0.00 in 793.0 W/m2 CLR
11:37 35.9 °F 11.5 °F 30.28 in NNW 5.5 mph 10.4 mph 36 % 0.00 in 142.0 W/m2 OVC
11:42 35.9 °F 11.5 °F 30.28 in West 8.7 mph 16.0 mph 36 % 0.00 in 789.0 W/m2 CLR
11:47 36.2 °F 12.4 °F 30.28 in West 10.3 mph 11.5 mph 37 % 0.00 in 846.0 W/m2 CLR
11:52 36.3 °F 11.9 °F 30.28 in NW 9.8 mph 9.8 mph 36 % 0.00 in 169.0 W/m2 OVC
11:57 36.2 °F 12.4 °F 30.28 in NW 10.2 mph 18.4 mph 37 % 0.00 in 192.0 W/m2 BKN
12:02 36.2 °F 13.0 °F 30.28 in NNW 6.5 mph 17.3 mph 38 % 0.00 in 835.0 W/m2 FEW
12:07 36.4 °F 12.6 °F 30.28 in WNW 12.8 mph 13.8 mph 37 % 0.00 in 947.0 W/m2 FEW
12:12 36.7 °F 12.8 °F 30.27 in West 7.3 mph 7.3 mph 37 % 0.00 in 867.0 W/m2 CLR
12:17 36.9 °F 11.8 °F 30.27 in WSW 9.9 mph 19.6 mph 35 % 0.00 in 935.0 W/m2 CLR
12:23 36.8 °F 12.3 °F 30.27 in WSW 5.8 mph 13.8 mph 36 % 0.00 in 935.0 W/m2 CLR
12:28 36.4 °F 11.9 °F 30.27 in WNW 11.4 mph 17.0 mph 36 % 0.00 in 269.0 W/m2 BKN
12:33 35.7 °F 11.3 °F 30.27 in NW 8.6 mph 16.1 mph 36 % 0.00 in 223.0 W/m2 BKN
12:38 35.9 °F 11.5 °F 30.27 in NW 10.4 mph 24.2 mph 36 % 0.00 in 244.0 W/m2 BKN
12:43 35.7 °F 11.3 °F 30.27 in WNW 11.8 mph 18.4 mph 36 % 0.00 in 731.0 W/m2 FEW
12:48 36.3 °F 12.5 °F 30.27 in West 12.3 mph 16.1 mph 37 % 0.00 in 279.0 W/m2 BKN
12:53 36.4 °F 12.6 °F 30.27 in West 11.8 mph 18.4 mph 37 % 0.00 in 304.0 W/m2 BKN
12:58 35.9 °F 11.5 °F 30.27 in WNW 9.9 mph 19.6 mph 36 % 0.00 in 213.0 W/m2 BKN
13:03 36.1 °F 11.7 °F 30.27 in NW 14.4 mph 26.5 mph 36 % 0.00 in 830.0 W/m2 CLR
13:08 36.0 °F 11.6 °F 30.26 in WNW 16.0 mph 26.5 mph 36 % 0.00 in 921.0 W/m2 CLR
13:13 36.5 °F 12.0 °F 30.26 in SW 11.9 mph 17.3 mph 36 % 0.00 in 925.0 W/m2 CLR
13:16 37.3 °F 12.1 °F 30.26 in West 11.6 mph 18.4 mph 35 % 0.00 in 889.0 W/m2 CLR
13:21 37.5 °F 11.6 °F 30.26 in WNW 14.7 mph 19.6 mph 34 % 0.00 in 768.0 W/m2 CLR
13:26 37.2 °F 11.4 °F 30.26 in WSW 8.8 mph 21.9 mph 34 % 0.00 in 304.0 W/m2 SCT
13:31 36.4 °F 10.7 °F 30.26 in WNW 13.2 mph 19.6 mph 34 % 0.00 in 171.0 W/m2 BKN
13:36 35.9 °F 10.9 °F 30.26 in West 12.4 mph 19.6 mph 35 % 0.00 in 107.0 W/m2 OVC
13:41 35.3 °F 10.3 °F 30.26 in NW 8.8 mph 16.1 mph 35 % 0.00 in 137.0 W/m2 OVC
13:46 35.7 °F 11.3 °F 30.26 in NW 8.9 mph 12.0 mph 36 % 0.00 in 241.0 W/m2 BKN
13:51 36.0 °F 11.6 °F 30.26 in WNW 10.7 mph 16.1 mph 36 % 0.00 in 221.0 W/m2 SCT
13:56 36.1 °F 12.3 °F 30.26 in West 8.9 mph 16.1 mph 37 % 0.00 in 323.0 W/m2 SCT
14:01 36.7 °F 12.2 °F 30.26 in West 8.5 mph 15.0 mph 36 % 0.00 in 647.0 W/m2 CLR
14:06 37.1 °F 11.9 °F 30.26 in NW 11.0 mph 15.0 mph 35 % 0.00 in 657.0 W/m2 CLR
14:11 37.9 °F 14.5 °F 30.26 in NW 7.8 mph 17.3 mph 38 % 0.00 in 735.0 W/m2 CLR
14:16 37.4 °F 12.2 °F 30.26 in WNW 9.9 mph 15.0 mph 35 % 0.00 in 132.0 W/m2 OVC
14:21 36.7 °F 10.9 °F 30.26 in West 9.4 mph 18.4 mph 34 % 0.00 in 415.0 W/m2 CLR
14:26 36.1 °F 11.0 °F 30.26 in WNW 15.2 mph 21.9 mph 35 % 0.00 in 202.0 W/m2 BKN
14:31 35.3 °F 11.0 °F 30.27 in WNW 11.9 mph 27.6 mph 36 % 0.00 in 155.0 W/m2 BKN
14:36 34.8 °F 12.3 °F 30.27 in WNW 12.2 mph 21.0 mph 39 % 0.00 in 139.0 W/m2 BKN
14:41 34.1 °F 14.4 °F 30.28 in West 15.9 mph 25.3 mph 44 % 0.00 in 69.0 W/m2 OVC
14:46 32.4 °F 18.8 °F 30.28 in West 12.5 mph 23.0 mph 57 % 0.00 in 86.0 W/m2 OVC
14:51 31.4 °F 21.0 °F 30.28 in WSW 3.3 mph 8.1 mph 65 % 0.00 in 336.0 W/m2 SCT
14:56 31.7 °F 20.9 °F 30.28 in West 10.9 mph 16.1 mph 64 % 0.00 in 378.0 W/m2 CLR
15:01 32.9 °F 21.3 °F 30.28 in WNW 10.0 mph 11.5 mph 62 % 0.00 in 554.0 W/m2 CLR
15:06 34.0 °F 20.3 °F 30.28 in WSW 12.6 mph 12.6 mph 57 % 0.00 in 529.0 W/m2 CLR
15:11 34.5 °F 19.5 °F 30.28 in West 8.9 mph 18.4 mph 54 % 0.00 in 522.0 W/m2 CLR
15:17 34.0 °F 18.2 °F 30.28 in WSW 9.1 mph 12.7 mph 52 % 0.00 in 139.0 W/m2 BKN
15:22 33.7 °F 18.4 °F 30.28 in West 3.3 mph 12.7 mph 53 % 0.00 in 54.0 W/m2 OVC
15:27 33.6 °F 19.1 °F 30.28 in WSW 9.5 mph 9.5 mph 55 % 0.00 in 69.0 W/m2 OVC
15:32 33.4 °F 19.4 °F 30.28 in WSW 8.8 mph 13.8 mph 56 % 0.00 in 139.0 W/m2 BKN
15:37 33.0 °F 20.2 °F 30.28 in WNW 11.3 mph 18.4 mph 59 % 0.00 in 295.0 W/m2 CLR
15:42 33.0 °F 21.0 °F 30.28 in West 11.3 mph 16.1 mph 61 % 0.00 in 123.0 W/m2 BKN
15:47 32.8 °F 21.2 °F 30.29 in WNW 9.1 mph 13.8 mph 62 % 0.00 in 160.0 W/m2 SCT
15:52 32.6 °F 21.8 °F 30.29 in WNW 5.0 mph 10.0 mph 64 % 0.00 in 130.0 W/m2 BKN
15:57 32.6 °F 21.8 °F 30.29 in WNW 7.2 mph 10.4 mph 64 % 0.00 in 63.0 W/m2 OVC
16:02 32.7 °F 21.5 °F 30.30 in WNW 8.3 mph 9.0 mph 63 % 0.00 in 56.0 W/m2 OVC
16:07 32.9 °F 20.5 °F 30.31 in WNW 12.8 mph 19.6 mph 60 % 0.00 in 21.0 W/m2 OVC
16:12 32.6 °F 21.0 °F 30.32 in West 18.2 mph 29.9 mph 62 % 0.00 in 14.0 W/m2 OVC
16:17 30.8 °F 21.5 °F 30.33 in WNW 16.3 mph 24.2 mph 68 % 0.00 in 11.0 W/m2 OVC
16:22 29.4 °F 21.8 °F 30.33 in West 4.5 mph 8.1 mph 73 % 0.00 in 49.0 W/m2 OVC
16:27 28.8 °F 22.5 °F 30.32 in West 7.9 mph 11.5 mph 77 % 0.00 in 165.0 W/m2 FEW
16:32 29.3 °F 23.6 °F 30.32 in NW 6.3 mph 11.5 mph 79 % 0.00 in 114.0 W/m2 SCT
16:37 29.6 °F 23.9 °F 30.32 in WSW 11.9 mph 18.4 mph 79 % 0.00 in 54.0 W/m2 BKN
16:42 29.5 °F 23.5 °F 30.33 in WNW 8.3 mph 18.4 mph 78 % 0.00 in 104.0 W/m2 BKN
16:47 29.7 °F 23.4 °F 30.33 in WSW 4.1 mph 14.0 mph 77 % 0.00 in 47.0 W/m2 BKN
16:52 29.8 °F 22.8 °F 30.33 in WNW 9.3 mph 16.1 mph 75 % 0.00 in 98.0 W/m2 SCT
16:57 30.4 °F 22.4 °F 30.33 in WNW 7.1 mph 11.5 mph 72 % 0.00 in 128.0 W/m2 CLR
17:02 30.8 °F 21.5 °F 30.33 in West 5.2 mph 10.4 mph 68 % 0.00 in 100.0 W/m2 CLR
17:07 31.0 °F 21.3 °F 30.33 in West 5.8 mph 9.2 mph 67 % 0.00 in 65.0 W/m2 FEW
17:12 31.0 °F 21.3 °F 30.33 in WNW 6.6 mph 11.5 mph 67 % 0.00 in 47.0 W/m2 SCT
17:17 30.9 °F 20.9 °F 30.33 in West 7.2 mph 12.0 mph 66 % 0.00 in 33.0 W/m2 BKN
17:22 30.8 °F 20.8 °F 30.33 in WSW 5.6 mph 10.4 mph 66 % 0.00 in 18.0 W/m2 BKN
17:27 30.4 °F 21.1 °F 30.33 in SW 3.0 mph 5.8 mph 68 % 0.00 in 16.0 W/m2 BKN
17:32 30.0 °F 20.7 °F 30.34 in WSW 3.7 mph 9.2 mph 68 % 0.00 in 12.0 W/m2 BKN
17:37 29.8 °F 20.9 °F 30.35 in SW 3.7 mph 8.1 mph 69 % 0.00 in 11.0 W/m2 BKN
17:42 29.7 °F 20.8 °F 30.35 in WSW 6.5 mph 13.8 mph 69 % 0.00 in 12.0 W/m2 SCT
17:47 29.8 °F 20.5 °F 30.35 in WSW 14.1 mph 19.6 mph 68 % 0.00 in 7.0 W/m2 SCT
17:52 29.9 °F 20.6 °F 30.35 in West 10.5 mph 16.1 mph 68 % 0.00 in 0.0 W/m2 FEW
17:57 29.8 °F 19.8 °F 30.35 in West 12.7 mph 19.6 mph 66 % 0.00 in 0.0 W/m2 FEW
18:02 29.8 °F 19.8 °F 30.35 in WSW 13.3 mph 16.1 mph 66 % 0.00 in 0.0 W/m2 FEW
18:07 29.5 °F 19.5 °F 30.36 in West 8.7 mph 17.3 mph 66 % 0.00 in 0.0 W/m2 FEW
18:12 29.4 °F 19.4 °F 30.36 in WNW 10.2 mph 12.7 mph 66 % 0.00 in 0.0 W/m2 FEW
18:17 29.5 °F 19.2 °F 30.36 in West 11.2 mph 15.0 mph 65 % 0.00 in 0.0 W/m2 FEW
18:22 29.6 °F 19.3 °F 30.36 in West 8.0 mph 12.7 mph 65 % 0.00 in 0.0 W/m2 FEW
18:27 29.6 °F 19.3 °F 30.37 in West 3.3 mph 6.0 mph 65 % 0.00 in 0.0 W/m2 FEW
18:32 29.5 °F 19.5 °F 30.37 in West 8.0 mph 13.8 mph 66 % 0.00 in 0.0 W/m2 FEW
18:37 29.3 °F 19.7 °F 30.37 in WNW 7.0 mph 11.5 mph 67 % 0.00 in 0.0 W/m2 FEW
18:42 29.2 °F 19.6 °F 30.38 in West 8.5 mph 19.6 mph 67 % 0.00 in 0.0 W/m2 FEW
18:47 29.2 °F 19.6 °F 30.38 in West 8.5 mph 17.3 mph 67 % 0.00 in 0.0 W/m2 FEW
18:52 29.1 °F 19.2 °F 30.38 in WSW 9.9 mph 15.0 mph 66 % 0.00 in 0.0 W/m2 FEW
18:57 29.0 °F 19.4 °F 30.39 in West 10.3 mph 16.1 mph 67 % 0.00 in 0.0 W/m2 FEW
19:02 28.8 °F 19.6 °F 30.39 in West 8.1 mph 13.8 mph 68 % 0.00 in 0.0 W/m2 FEW
19:07 28.6 °F 19.7 °F 30.39 in WSW 9.5 mph 13.8 mph 69 % 0.00 in 0.0 W/m2 FEW
19:12 28.5 °F 20.0 °F 30.39 in West 8.7 mph 13.8 mph 70 % 0.00 in 0.0 W/m2 FEW
19:17 28.4 °F 19.9 °F 30.39 in West 7.9 mph 11.5 mph 70 % 0.00 in 0.0 W/m2 FEW
19:22 28.4 °F 19.9 °F 30.40 in WNW 10.8 mph 15.0 mph 70 % 0.00 in 0.0 W/m2 FEW
19:27 28.4 °F 19.9 °F 30.40 in NW 7.6 mph 11.5 mph 70 % 0.00 in 0.0 W/m2 FEW
19:32 28.4 °F 19.2 °F 30.41 in NW 13.1 mph 17.3 mph 68 % 0.00 in 0.0 W/m2 FEW
19:37 28.4 °F 18.1 °F 30.41 in WNW 11.6 mph 19.6 mph 65 % 0.00 in 0.0 W/m2 FEW
19:42 28.2 °F 17.6 °F 30.42 in NNW 11.3 mph 18.4 mph 64 % 0.00 in 0.0 W/m2 FEW
19:47 28.1 °F 17.1 °F 30.42 in NW 8.7 mph 15.0 mph 63 % 0.00 in 0.0 W/m2 FEW
19:52 27.9 °F 16.6 °F 30.42 in NW 8.8 mph 17.3 mph 62 % 0.00 in 0.0 W/m2 FEW
19:57 27.7 °F 16.4 °F 30.42 in NW 10.5 mph 16.1 mph 62 % 0.00 in 0.0 W/m2 FEW
20:02 27.7 °F 16.0 °F 30.43 in WNW 7.6 mph 13.8 mph 61 % 0.00 in 0.0 W/m2 FEW
20:07 27.6 °F 15.5 °F 30.43 in NW 13.7 mph 19.6 mph 60 % 0.00 in 0.0 W/m2 FEW
20:12 27.4 °F 15.3 °F 30.43 in WNW 4.3 mph 9.2 mph 60 % 0.00 in 0.0 W/m2 FEW
20:17 27.3 °F 15.2 °F 30.43 in NW 9.8 mph 16.1 mph 60 % 0.00 in 0.0 W/m2 FEW
20:22 27.2 °F 14.8 °F 30.44 in NW 8.1 mph 20.7 mph 59 % 0.00 in 0.0 W/m2 FEW
20:27 27.1 °F 14.7 °F 30.44 in WNW 4.9 mph 12.7 mph 59 % 0.00 in 0.0 W/m2 FEW
20:32 27.1 °F 14.3 °F 30.44 in NW 6.6 mph 16.0 mph 58 % 0.00 in 0.0 W/m2 FEW
20:37 27.0 °F 14.2 °F 30.44 in NW 9.1 mph 13.8 mph 58 % 0.00 in 0.0 W/m2 FEW
20:42 26.8 °F 14.4 °F 30.45 in NNW 10.6 mph 14.0 mph 59 % 0.00 in 0.0 W/m2 FEW
20:47 26.8 °F 14.4 °F 30.45 in WNW 10.8 mph 16.1 mph 59 % 0.00 in 0.0 W/m2 FEW
20:52 26.7 °F 14.3 °F 30.46 in West 7.1 mph 11.5 mph 59 % 0.00 in 0.0 W/m2 FEW
20:57 26.7 °F 14.3 °F 30.46 in WNW 8.0 mph 11.5 mph 59 % 0.00 in 0.0 W/m2 FEW
20:58 26.7 °F 14.3 °F 30.46 in WNW 6.3 mph 11.5 mph 59 % 0.00 in 0.0 W/m2 FEW
21:03 26.6 °F 14.6 °F 30.46 in WNW 7.9 mph 11.5 mph 60 % 0.00 in 0.0 W/m2 FEW
21:08 26.6 °F 14.6 °F 30.46 in WNW 7.0 mph 13.8 mph 60 % 0.00 in 0.0 W/m2 FEW
21:13 26.6 °F 14.6 °F 30.46 in WNW 6.9 mph 11.5 mph 60 % 0.00 in 0.0 W/m2 FEW
21:18 26.7 °F 13.9 °F 30.47 in NW 11.5 mph 16.0 mph 58 % 0.00 in 0.0 W/m2 FEW
21:23 26.6 °F 13.0 °F 30.47 in WNW 8.3 mph 16.1 mph 56 % 0.00 in 0.0 W/m2 FEW
21:28 26.5 °F 12.5 °F 30.47 in WNW 10.0 mph 13.0 mph 55 % 0.00 in 0.0 W/m2 FEW
21:33 26.5 °F 12.1 °F 30.47 in WNW 11.5 mph 15.0 mph 54 % 0.00 in 0.0 W/m2 FEW
21:38 26.4 °F 12.0 °F 30.48 in West 4.4 mph 8.0 mph 54 % 0.00 in 0.0 W/m2 FEW
21:43 26.3 °F 11.5 °F 30.48 in WNW 11.3 mph 17.0 mph 53 % 0.00 in 0.0 W/m2 FEW
21:48 26.2 °F 10.1 °F 30.48 in West 9.8 mph 18.0 mph 50 % 0.00 in 0.0 W/m2 FEW
21:53 26.2 °F 9.6 °F 30.48 in WNW 10.3 mph 18.4 mph 49 % 0.00 in 0.0 W/m2 FEW
21:58 26.1 °F 9.1 °F 30.48 in NW 7.9 mph 11.5 mph 48 % 0.00 in 0.0 W/m2 FEW
22:03 26.0 °F 9.0 °F 30.48 in NW 8.9 mph 18.0 mph 48 % 0.00 in 0.0 W/m2 FEW
22:08 25.9 °F 8.9 °F 30.48 in NNW 11.6 mph 20.7 mph 48 % 0.00 in 0.0 W/m2 FEW
22:13 25.8 °F 8.8 °F 30.48 in NW 9.9 mph 15.0 mph 48 % 0.00 in 0.0 W/m2 FEW
22:18 25.7 °F 8.2 °F 30.48 in West 13.1 mph 18.0 mph 47 % 0.00 in 0.0 W/m2 FEW
22:23 25.5 °F 8.0 °F 30.48 in NW 10.4 mph 18.4 mph 47 % 0.00 in 0.0 W/m2 FEW
22:28 25.4 °F 7.9 °F 30.48 in NW 11.6 mph 16.1 mph 47 % 0.00 in 0.0 W/m2 FEW
22:33 25.3 °F 8.3 °F 30.48 in NNW 9.0 mph 18.4 mph 48 % 0.00 in 0.0 W/m2 FEW
22:38 25.2 °F 7.8 °F 30.48 in NW 9.4 mph 15.0 mph 47 % 0.00 in 0.0 W/m2 FEW
22:43 25.1 °F 8.1 °F 30.48 in NW 7.3 mph 14.0 mph 48 % 0.00 in 0.0 W/m2 FEW
22:48 25.0 °F 8.0 °F 30.49 in NW 7.6 mph 12.7 mph 48 % 0.00 in 0.0 W/m2 FEW
22:53 24.9 °F 8.4 °F 30.49 in WNW 6.8 mph 11.5 mph 49 % 0.00 in 0.0 W/m2 FEW
22:58 24.9 °F 8.4 °F 30.49 in NW 5.8 mph 10.4 mph 49 % 0.00 in 0.0 W/m2 FEW
23:03 24.9 °F 8.4 °F 30.49 in WNW 9.7 mph 13.8 mph 49 % 0.00 in 0.0 W/m2 FEW
23:08 24.9 °F 9.3 °F 30.49 in NW 6.7 mph 15.0 mph 51 % 0.00 in 0.0 W/m2 FEW
23:13 24.8 °F 9.6 °F 30.49 in WNW 3.9 mph 9.2 mph 52 % 0.00 in 0.0 W/m2 FEW
23:18 24.7 °F 10.0 °F 30.50 in WSW 9.5 mph 16.1 mph 53 % 0.00 in 0.0 W/m2 FEW
23:23 24.6 °F 11.9 °F 30.50 in West 6.8 mph 10.4 mph 58 % 0.00 in 0.0 W/m2 FEW
23:28 24.3 °F 12.4 °F 30.50 in West 11.0 mph 16.1 mph 60 % 0.00 in 0.0 W/m2 FEW
23:33 24.0 °F 12.9 °F 30.50 in West 10.3 mph 19.6 mph 62 % 0.00 in 0.0 W/m2 FEW
23:38 23.8 °F 13.0 °F 30.51 in WNW 9.3 mph 12.7 mph 63 % 0.00 in 0.0 W/m2 FEW
23:43 23.6 °F 13.2 °F 30.51 in West 8.8 mph 18.4 mph 64 % 0.00 in 0.0 W/m2 FEW
23:48 23.6 °F 13.2 °F 30.50 in WNW 9.9 mph 13.8 mph 64 % 0.00 in 0.0 W/m2 FEW
23:53 23.6 °F 12.8 °F 30.51 in NW 5.8 mph 10.0 mph 63 % 0.00 in 0.0 W/m2 FEW
23:58 23.5 °F 12.7 °F 30.51 in WNW 10.2 mph 20.0 mph 63 % 0.00 in 0.0 W/m2 FEW
Air Products Campus Weather
Compliments of Weather Underground - 3.5 mb